This demonstration page uses our WeatherBlox Daily Observations layout. Learn more.

Left ArrowRight Arrow

41.55636, -103.73856

Hourly Observations for November 22, 2019

Temp ( °F °C ) Dew Point ( °F °C ) Humidity (%) Winds ( mph kmh ) Pressure ( in mb ) Visibility ( mi km ) Precip ( " mm )
12:58 am 00:58 Cloudy 26 -3.2 22 -5.6 84 84 N N/A 30.28 1025 10 16.0934 N/A
1:58 am 01:58 Cloudy 27 -3 22 -5.3 84 84 ESE 6 9 30.29 1026 10 16.0934 N/A
2:58 am 02:58 Mostly Clear 24 -4.2 21 -6.1 87 87 SE 6 9 30.3 1026 10 16.0934 N/A
4:58 am 04:58 Mostly Cloudy 25 -4.1 20 -6.4 84 84 SE 7 11 30.29 1026 10 16.0934 N/A
5:58 am 05:58 Mostly Cloudy 24 -4.4 20 -6.8 84 84 SSE 7 11 30.28 1026 10 16.0934 N/A
6:58 am 06:58 Cloudy 26 -3.3 19 -7.2 75 75 SSE 7 11 30.27 1025 10 16.0934 N/A
7:58 am 07:58 Mostly Cloudy 27 -2.9 18 -7.8 69 69 S 10 17 30.26 1025 10 16.0934 N/A
8:58 am 08:58 Cloudy 27 -3 18 -7.8 70 70 N N/A 30.24 1024 10 16.0934 N/A
9:58 am 09:58 Clear 24 -4.7 18 -7.7 80 80 SSW 7 11 30.23 1024 10 16.0934 N/A
11:58 am 11:58 Clear 25 -4 19 -7.2 79 79 SSW 5 7 30.2 1023 10 16.0934 N/A
12:58 pm 12:58 Clear 23 -5.1 18 -7.7 82 82 SW 6 9 30.22 1023 10 16.0934 N/A
1:58 pm 13:58 Mostly Cloudy 24 -4.4 19 -7.5 79 79 N N/A 30.19 1022 10 16.0934 N/A
2:58 pm 14:58 Mostly Cloudy 26 -3.4 20 -6.7 78 78 SW 6 9 30.2 1023 10 16.0934 N/A
3:58 pm 15:58 Mostly Sunny 29 -1.7 22 -5.5 76 76 SW 16 26 30.18 1022 10 16.0934 N/A
4:58 pm 16:58 Mostly Sunny 31 -0.6 24 -4.6 75 75 SW 18 30 30.19 1022 10 16.0934 N/A
5:58 pm 17:58 Partly Cloudy 36 2.3 25 -3.8 64 64 WSW 14 22 30.14 1021 10 16.0934 N/A
8:58 pm 20:58 Sunny 42 5.6 25 -4 50 50 W 9 15 30.01 1016 10 16.0934 N/A
9:58 pm 21:58 Sunny 43 6.1 25 -3.8 49 49 NNW 7 11 30.01 1016 10 16.0934 N/A
10:58 pm 22:58 Sunny 41 5 24 -4.5 51 51 NW 6 9 30.02 1017 10 16.0934 N/A
11:58 pm 23:58 Clear 36 2 25 -4.1 64 64 NNE 5 7 30.04 1017 10 16.0934 N/A

Powered by AerisWeather